Wilson Maas — 8PSZ — position and weather

sailwx.info

Track history (hours):
 
Tides and Currents Weather Stations Pressure Air Temp Water Temp Dewpoint Dewpoint Depression Visibility Wind Speed Wind Dir Waves Ship Positions

Wilson Maas

Last reported at 2014-Oct-22 13:33 UTC. Time now 2014-Oct-22 13:53 UTC.
Position N 51°50' E 004°33'.

Length 78 m; draft 3.4 m.

Type: Cargo ship. MMSI: 314217000.

Date/timePositionNaut miles runAvg speedWind from/ knotsBaromVisibWave heightAir tempDewpointWater temp
2014-Oct-22 13:33N 51°50' E 004°33'7 6.6
2014-Oct-22 12:33N 51°43' E 004°38'2 2.3
2014-Oct-22 11:33N 51°42' E 004°35'0 0.0
2014-Oct-22 10:33N 51°42' E 004°35'0 0.0
2014-Oct-22 09:06N 51°42' E 004°35'0 0.0
2014-Oct-22 06:33N 51°42' E 004°35'0 0.0
2014-Oct-22 05:12N 51°42' E 004°35'0 0.0
2014-Oct-22 04:27N 51°42' E 004°35'0 0.0
2014-Oct-22 02:30N 51°42' E 004°35'0 0.0
2014-Oct-22 01:31N 51°42' E 004°35'5 5.0
2014-Oct-22 00:33N 51°46' E 004°38'7 7.2
2014-Oct-21 23:33N 51°50' E 004°28'7 7.2
2014-Oct-21 22:33N 51°54' E 004°18'1110.7
2014-Oct-21 21:33N 51°59' E 004°03'9 9.1
2014-Oct-21 20:34N 52°03' E 003°49'9 9.1
2014-Oct-21 19:33N 52°12' E 003°46'12 8.3
2014-Oct-21 18:07N 52°24' E 003°47'5 6.4
2014-Oct-21 17:23N 52°27' E 003°52'6 7.3
2014-Oct-21 16:33N 52°33' E 003°54'96 6.4
2014-Oct-21 01:33N 54°03' E 004°53'19 9.6
2014-Oct-20 23:32N 54°22' E 004°60'9 9.4
2014-Oct-20 22:32N 54°31' E 005°03'  
2014-Oct-17 16:15N 63°36' E 009°19'1110.9
2014-Oct-17 15:15N 63°39' E 009°42'6 9.3
2014-Oct-17 14:33N 63°34' E 009°51'10 9.7
2014-Oct-17 13:34N 63°29' E 010°09'8 7.7
2014-Oct-17 12:34N 63°22' E 009°59'4 4.1
2014-Oct-17 11:32N 63°19' E 009°53'0 0.0
2014-Oct-17 10:29N 63°19' E 009°53'0 0.0
2014-Oct-17 09:29N 63°19' E 009°53'0 0.0
2014-Oct-17 08:29N 63°19' E 009°53'0 0.0
2014-Oct-17 07:29N 63°19' E 009°53'0 0.0
2014-Oct-17 06:29N 63°19' E 009°53'0 0.0
2014-Oct-17 05:29N 63°19' E 009°53'0 0.0
2014-Oct-17 04:32N 63°19' E 009°53'0 0.0
2014-Oct-17 03:32N 63°19' E 009°53'0 0.0
2014-Oct-17 02:32N 63°19' E 009°53'0 0.0
2014-Oct-17 01:32N 63°19' E 009°53'0 0.0
2014-Oct-17 00:32N 63°19' E 009°53'0 0.0
2014-Oct-16 23:32N 63°19' E 009°53'0 0.0
2014-Oct-16 22:32N 63°19' E 009°53'0 0.0
2014-Oct-16 21:32N 63°19' E 009°53'  
2014-Oct-14 01:10N 59°09' E 005°04'6 9.4
2014-Oct-14 00:33N 59°07' E 005°15'8 8.5
2014-Oct-13 23:33N 59°15' E 005°20'4 0.5
2014-Oct-13 15:14N 59°10' E 005°22'1014.5
2014-Oct-13 14:32N 59°20' E 005°18'9 9.1
2014-Oct-13 13:33N 59°11' E 005°21'9 9.3
2014-Oct-13 12:33N 59°05' E 005°34'8 7.9
2014-Oct-13 11:34N 59°01' E 005°48'9 9.1
2014-Oct-13 10:33N 58°52' E 005°45'1 1.0
2014-Oct-13 09:29N 58°51' E 005°45'0 0.0
2014-Oct-13 08:32N 58°51' E 005°45'0 0.0
2014-Oct-13 07:32N 58°51' E 005°45'0 0.0
2014-Oct-13 06:32N 58°51' E 005°45'0 0.0
2014-Oct-13 05:32N 58°51' E 005°45'0 0.0
2014-Oct-13 04:32N 58°51' E 005°45'0 0.0
2014-Oct-13 03:32N 58°51' E 005°45'0 0.0
2014-Oct-13 02:32N 58°51' E 005°45'0 0.0
2014-Oct-13 01:32N 58°51' E 005°45'0 0.0
2014-Oct-13 00:32N 58°51' E 005°45'0 0.0
2014-Oct-12 23:32N 58°51' E 005°45'0 0.0
2014-Oct-12 22:32N 58°51' E 005°45'0 0.0
2014-Oct-12 21:32N 58°51' E 005°45'0 0.0
2014-Oct-12 20:32N 58°51' E 005°45'0 0.0
2014-Oct-12 19:32N 58°51' E 005°45'0 0.0
2014-Oct-12 18:32N 58°51' E 005°45'0 0.0
2014-Oct-12 17:32N 58°51' E 005°45'0 0.0
2014-Oct-12 16:33N 58°51' E 005°45'9 8.6
2014-Oct-12 15:33N 58°60' E 005°48'8 8.0
2014-Oct-12 14:33N 59°04' E 005°34'7 7.1
2014-Oct-12 13:34N 59°02' E 005°20'  
Track history (hours):
 
Tides and Currents Weather Stations Pressure Air Temp Water Temp Dewpoint Dewpoint Depression Visibility Wind Speed Wind Dir Waves Ship Positions

Wilson Maas

Last reported at 2014-Oct-22 13:33 UTC. Time now 2014-Oct-22 13:53 UTC.
Position N 51°50' E 004°33'.

Length 78 m; draft 3.4 m.

Type: Cargo ship. MMSI: 314217000.

Date/timePositionNaut miles runAvg speedWind from/ knotsBaromVisibWave heightAir tempDewpointWater temp
2014-Oct-22 13:33N 51°50' E 004°33'7 6.6
2014-Oct-22 12:33N 51°43' E 004°38'2 2.3
2014-Oct-22 11:33N 51°42' E 004°35'0 0.0
2014-Oct-22 10:33N 51°42' E 004°35'0 0.0
2014-Oct-22 09:06N 51°42' E 004°35'0 0.0
2014-Oct-22 06:33N 51°42' E 004°35'0 0.0
2014-Oct-22 05:12N 51°42' E 004°35'0 0.0
2014-Oct-22 04:27N 51°42' E 004°35'0 0.0
2014-Oct-22 02:30N 51°42' E 004°35'0 0.0
2014-Oct-22 01:31N 51°42' E 004°35'5 5.0
2014-Oct-22 00:33N 51°46' E 004°38'7 7.2
2014-Oct-21 23:33N 51°50' E 004°28'7 7.2
2014-Oct-21 22:33N 51°54' E 004°18'1110.7
2014-Oct-21 21:33N 51°59' E 004°03'9 9.1
2014-Oct-21 20:34N 52°03' E 003°49'9 9.1
2014-Oct-21 19:33N 52°12' E 003°46'12 8.3
2014-Oct-21 18:07N 52°24' E 003°47'5 6.4
2014-Oct-21 17:23N 52°27' E 003°52'6 7.3
2014-Oct-21 16:33N 52°33' E 003°54'96 6.4
2014-Oct-21 01:33N 54°03' E 004°53'19 9.6
2014-Oct-20 23:32N 54°22' E 004°60'9 9.4
2014-Oct-20 22:32N 54°31' E 005°03'  
2014-Oct-17 16:15N 63°36' E 009°19'1110.9
2014-Oct-17 15:15N 63°39' E 009°42'6 9.3
2014-Oct-17 14:33N 63°34' E 009°51'10 9.7
2014-Oct-17 13:34N 63°29' E 010°09'8 7.7
2014-Oct-17 12:34N 63°22' E 009°59'4 4.1
2014-Oct-17 11:32N 63°19' E 009°53'0 0.0
2014-Oct-17 10:29N 63°19' E 009°53'0 0.0
2014-Oct-17 09:29N 63°19' E 009°53'0 0.0
2014-Oct-17 08:29N 63°19' E 009°53'0 0.0
2014-Oct-17 07:29N 63°19' E 009°53'0 0.0
2014-Oct-17 06:29N 63°19' E 009°53'0 0.0
2014-Oct-17 05:29N 63°19' E 009°53'0 0.0
2014-Oct-17 04:32N 63°19' E 009°53'0 0.0
2014-Oct-17 03:32N 63°19' E 009°53'0 0.0
2014-Oct-17 02:32N 63°19' E 009°53'0 0.0
2014-Oct-17 01:32N 63°19' E 009°53'0 0.0
2014-Oct-17 00:32N 63°19' E 009°53'0 0.0
2014-Oct-16 23:32N 63°19' E 009°53'0 0.0
2014-Oct-16 22:32N 63°19' E 009°53'0 0.0
2014-Oct-16 21:32N 63°19' E 009°53'  
2014-Oct-14 01:10N 59°09' E 005°04'6 9.4
2014-Oct-14 00:33N 59°07' E 005°15'8 8.5
2014-Oct-13 23:33N 59°15' E 005°20'4 0.5
2014-Oct-13 15:14N 59°10' E 005°22'1014.5
2014-Oct-13 14:32N 59°20' E 005°18'9 9.1
2014-Oct-13 13:33N 59°11' E 005°21'9 9.3
2014-Oct-13 12:33N 59°05' E 005°34'8 7.9
2014-Oct-13 11:34N 59°01' E 005°48'9 9.1
2014-Oct-13 10:33N 58°52' E 005°45'1 1.0
2014-Oct-13 09:29N 58°51' E 005°45'0 0.0
2014-Oct-13 08:32N 58°51' E 005°45'0 0.0
2014-Oct-13 07:32N 58°51' E 005°45'0 0.0
2014-Oct-13 06:32N 58°51' E 005°45'0 0.0
2014-Oct-13 05:32N 58°51' E 005°45'0 0.0
2014-Oct-13 04:32N 58°51' E 005°45'0 0.0
2014-Oct-13 03:32N 58°51' E 005°45'0 0.0
2014-Oct-13 02:32N 58°51' E 005°45'0 0.0
2014-Oct-13 01:32N 58°51' E 005°45'0 0.0
2014-Oct-13 00:32N 58°51' E 005°45'0 0.0
2014-Oct-12 23:32N 58°51' E 005°45'0 0.0
2014-Oct-12 22:32N 58°51' E 005°45'0 0.0
2014-Oct-12 21:32N 58°51' E 005°45'0 0.0
2014-Oct-12 20:32N 58°51' E 005°45'0 0.0
2014-Oct-12 19:32N 58°51' E 005°45'0 0.0
2014-Oct-12 18:32N 58°51' E 005°45'0 0.0
2014-Oct-12 17:32N 58°51' E 005°45'0 0.0
2014-Oct-12 16:33N 58°51' E 005°45'9 8.6
2014-Oct-12 15:33N 58°60' E 005°48'8 8.0
2014-Oct-12 14:33N 59°04' E 005°34'7 7.1
2014-Oct-12 13:34N 59°02' E 005°20'  

Dump ship's entire track history